Time;durP1;ratioP1;P1;durP2;ratioP2;P2;SDS_P1;SDS_P2;PMS_P1;PMS_P2;Temp;Humidity;BMP_temperature;BMP_pressure;BME280_temperature;BME280_humidity;BME280_pressure;Samples;Min_cycle;Max_cycle;Signal;HPM_P1;HPM_P2
2022/09/04 00:01:40;;;;;;;;;;;;;;;16.59;46.19;100368.09;10177666;29;21270;-78
2022/09/04 00:07:00;;;;;;;3.08;2.45;;;;;;;16.42;46.51;100369.03;10182079;29;19937;-78
2022/09/04 00:12:07;;;;;;;2.85;2.00;;;;;;;16.31;46.44;100378.28;10204330;29;20055;-77
2022/09/04 00:17:19;;;;;;;5.63;2.25;;;;;;;16.13;46.84;100372.94;10117011;29;20052;-80
2022/09/04 00:22:33;;;;;;;3.55;2.03;;;;;;;16.11;46.92;100372.22;10163008;29;20130;-79
2022/09/04 00:27:43;;;;;;;5.85;1.73;;;;;;;15.99;46.97;100378.06;10154882;29;20062;-78
2022/09/04 00:32:54;;;;;;;2.08;1.98;;;;;;;16.02;47.29;100375.91;10160378;29;20581;-78
2022/09/04 00:38:09;;;;;;;2.63;2.05;;;;;;;15.99;47.21;100381.66;10160315;29;20060;-79
2022/09/04 00:43:49;;;;;;;2.75;1.77;;;;;;;16.07;47.35;100383.53;10158875;29;20087;-79
2022/09/04 00:49:21;;;;;;;2.55;1.80;;;;;;;16.03;46.80;100395.72;10148812;29;20047;-78
2022/09/04 00:54:41;;;;;;;3.65;2.28;;;;;;;15.96;47.19;100391.94;10157578;29;20060;-78
2022/09/04 01:00:03;;;;;;;3.70;1.88;;;;;;;16.00;47.22;100391.47;10152854;29;20055;-78
2022/09/04 01:05:12;;;;;;;1.70;1.60;;;;;;;16.00;47.23;100388.75;10117623;29;20138;-79
2022/09/04 01:10:35;;;;;;;2.20;2.00;;;;;;;15.91;47.36;100387.88;10153799;29;20060;-80
2022/09/04 01:15:43;;;;;;;3.35;1.98;;;;;;;15.86;47.27;100395.63;10167893;29;20055;-78
2022/09/04 01:21:13;;;;;;;2.78;1.60;;;;;;;15.84;47.15;100405.75;10169982;29;20463;-79
2022/09/04 01:26:23;;;;;;;4.00;1.65;;;;;;;15.84;47.29;100403.03;10152253;29;20044;-79
2022/09/04 01:31:36;;;;;;;1.95;1.80;;;;;;;15.81;47.32;100399.81;10159008;29;20675;-78
2022/09/04 01:36:47;;;;;;;3.00;1.88;;;;;;;15.73;47.50;100400.59;10158120;29;21543;-78
2022/09/04 01:42:00;;;;;;;3.03;1.80;;;;;;;15.69;47.38;100402.78;10163715;29;20111;-79
2022/09/04 01:47:11;;;;;;;3.90;2.10;;;;;;;15.57;47.88;100404.00;10163170;29;20064;-78
2022/09/04 01:52:32;;;;;;;2.38;1.75;;;;;;;15.66;47.89;100405.81;10168478;29;20055;-79
2022/09/04 01:57:46;;;;;;;2.60;2.10;;;;;;;15.69;47.71;100408.19;10170756;29;20070;-79
2022/09/04 02:03:01;;;;;;;3.15;1.95;;;;;;;15.50;49.91;100407.53;10164251;29;20666;-80
2022/09/04 02:08:20;;;;;;;2.92;1.90;;;;;;;15.01;50.49;100411.41;10140140;29;20050;-79
2022/09/04 02:13:39;;;;;;;2.45;1.67;;;;;;;14.98;51.11;100411.72;10163087;29;20982;-79
2022/09/04 02:18:54;;;;;;;1.90;1.70;;;;;;;15.04;50.99;100413.81;10171970;29;20116;-79
2022/09/04 02:24:13;;;;;;;2.50;1.70;;;;;;;15.10;51.01;100417.75;10163918;29;20088;-78
2022/09/04 02:29:25;;;;;;;3.40;1.70;;;;;;;15.18;51.04;100422.41;10164303;29;21513;-79
2022/09/04 02:34:39;;;;;;;2.28;2.08;;;;;;;15.26;50.63;100415.22;10150446;29;20060;-79
2022/09/04 02:39:54;;;;;;;4.00;2.17;;;;;;;15.20;50.56;100418.53;10145543;29;20056;-79
2022/09/04 02:45:11;;;;;;;3.28;2.10;;;;;;;15.08;50.98;100408.09;10168492;29;20060;-78
2022/09/04 02:50:32;;;;;;;2.88;2.35;;;;;;;14.99;51.37;100415.25;10154916;29;20108;-79
2022/09/04 02:55:53;;;;;;;4.43;2.67;;;;;;;14.80;51.91;100419.78;10170509;29;20433;-77
2022/09/04 03:01:06;;;;;;;3.78;2.53;;;;;;;14.70;52.00;100421.72;10165024;29;20079;-78
2022/09/04 03:06:12;;;;;;;2.25;2.10;;;;;;;14.65;52.41;100423.16;10152536;29;20111;-77
2022/09/04 03:11:20;;;;;;;3.88;2.47;;;;;;;14.72;51.96;100430.50;10172839;29;20110;-78
2022/09/04 03:16:32;;;;;;;3.85;2.30;;;;;;;14.75;52.22;100438.31;10142810;29;20478;-79
2022/09/04 03:21:41;;;;;;;2.30;2.05;;;;;;;14.74;52.30;100436.63;10173287;29;20126;-79
2022/09/04 03:26:49;;;;;;;2.90;1.98;;;;;;;14.43;53.02;100435.22;10133347;29;21286;-78
2022/09/04 03:32:05;;;;;;;2.70;2.20;;;;;;;14.35;53.48;100436.75;10141594;29;20052;-79
2022/09/04 03:37:44;;;;;;;2.22;2.03;;;;;;;14.37;53.70;100450.09;10130973;29;20235;-78
2022/09/04 03:43:05;;;;;;;4.10;2.85;;;;;;;14.44;53.33;100447.72;10148079;29;20060;-78
2022/09/04 03:48:22;;;;;;;4.75;2.35;;;;;;;14.43;52.96;100446.03;10161412;29;20062;-79
2022/09/04 03:53:33;;;;;;;3.15;2.55;;;;;;;14.47;53.18;100444.72;10157049;29;20051;-78
2022/09/04 03:58:50;;;;;;;3.17;2.50;;;;;;;14.42;53.29;100447.84;10172714;29;20154;-78
2022/09/04 04:04:20;;;;;;;3.10;2.40;;;;;;;14.41;53.30;100453.41;10124700;29;20087;-77
2022/09/04 04:09:47;;;;;;;2.90;2.15;;;;;;;14.34;53.27;100461.22;10177259;29;20048;-77
2022/09/04 04:15:03;;;;;;;2.13;1.90;;;;;;;14.29;53.48;100458.09;10102229;29;20052;-79
2022/09/04 04:20:29;;;;;;;4.55;2.05;;;;;;;14.28;53.38;100473.44;10095786;29;20684;-78
2022/09/04 04:25:48;;;;;;;2.63;2.03;;;;;;;14.31;53.42;100478.56;10129484;29;20810;-78
2022/09/04 04:31:04;;;;;;;2.92;2.00;;;;;;;14.34;53.48;100485.53;10146392;29;20058;-78
2022/09/04 04:36:14;;;;;;;;;;;;;;;14.34;53.50;100486.41;10173164;29;20060;-78
2022/09/04 04:41:30;;;;;;;2.55;1.02;;;;;;;14.38;54.35;100487.84;10156360;29;19927;-78
2022/09/04 04:46:51;;;;;;;4.60;1.63;;;;;;;14.45;54.12;100495.34;10153164;29;21839;-78
2022/09/04 04:52:15;;;;;;;4.82;1.90;;;;;;;14.51;54.06;100492.94;10133354;29;20048;-78
2022/09/04 04:57:31;;;;;;;2.30;2.10;;;;;;;14.53;53.98;100498.16;10168965;29;20087;-78
2022/09/04 05:02:42;;;;;;;4.80;2.20;;;;;;;14.53;53.77;100506.28;10192011;29;20091;-78
2022/09/04 05:07:53;;;;;;;3.30;2.05;;;;;;;14.51;53.85;100522.66;10162578;29;20055;-78
2022/09/04 05:13:07;;;;;;;2.75;2.20;;;;;;;14.45;54.04;100522.38;10164811;29;20067;-78
2022/09/04 05:18:18;;;;;;;3.03;1.80;;;;;;;14.43;54.32;100527.94;10132400;29;20072;-78
2022/09/04 05:23:31;;;;;;;2.67;2.28;;;;;;;14.58;54.28;100534.56;10156585;29;20063;-77
2022/09/04 05:28:45;;;;;;;3.63;2.13;;;;;;;14.80;53.86;100541.47;10159852;29;20059;-79
2022/09/04 05:33:56;;;;;;;8.95;2.03;;;;;;;14.59;53.95;100546.25;10151943;29;20544;-79
2022/09/04 05:39:09;;;;;;;1.80;1.70;;;;;;;14.46;55.15;100553.81;10130406;29;20134;-79
2022/09/04 05:44:26;;;;;;;4.72;2.38;;;;;;;14.69;55.02;100560.56;10151961;29;20080;-79
2022/09/04 05:49:46;;;;;;;3.25;2.00;;;;;;;15.02;54.60;100553.75;10134737;29;21947;-78
2022/09/04 05:55:20;;;;;;;3.25;2.03;;;;;;;15.31;54.13;100560.06;10152351;29;20047;-78
2022/09/04 06:00:23;;;;;;;5.10;2.53;;;;;;;15.57;53.25;100560.19;10126430;29;20075;-78
2022/09/04 06:05:33;;;;;;;5.95;3.67;;;;;;;15.69;52.62;100545.44;10151674;29;20052;-78
2022/09/04 06:10:52;;;;;;;7.40;2.10;;;;;;;15.83;52.46;100554.91;10162071;29;20110;-78
2022/09/04 06:16:12;;;;;;;4.60;2.33;;;;;;;16.08;52.22;100556.81;10146519;29;20064;-78
2022/09/04 06:21:36;;;;;;;5.40;2.20;;;;;;;16.29;51.92;100567.34;10146509;29;20055;-78
2022/09/04 06:27:04;;;;;;;5.53;2.20;;;;;;;16.55;51.52;100567.38;10147875;29;20143;-78
2022/09/04 06:32:47;;;;;;;4.95;2.17;;;;;;;16.67;51.03;100564.38;10138879;29;20056;-78
2022/09/04 06:38:12;;;;;;;2.60;1.80;;;;;;;16.95;50.58;100565.94;10150734;29;20128;-76
2022/09/04 06:43:27;;;;;;;2.20;1.58;;;;;;;17.45;49.92;100577.88;10138157;29;20056;-78
2022/09/04 06:48:45;;;;;;;5.45;1.95;;;;;;;17.87;49.16;100582.38;10169433;29;20147;-78
2022/09/04 06:53:59;;;;;;;9.80;2.05;;;;;;;18.00;47.70;100582.78;10133290;29;20506;-77
2022/09/04 06:59:23;;;;;;;2.30;2.08;;;;;;;18.32;48.07;100591.94;10128631;29;20056;-78
2022/09/04 07:04:45;;;;;;;3.92;1.80;;;;;;;18.71;47.29;100602.16;10140859;29;20055;-78
2022/09/04 07:09:52;;;;;;;1.98;1.88;;;;;;;19.12;46.59;100602.94;10149804;29;20051;-76
2022/09/04 07:15:38;;;;;;;3.83;2.03;;;;;;;19.44;45.82;100609.25;10193857;29;20477;-78
2022/09/04 07:20:50;;;;;;;5.43;1.85;;;;;;;19.62;45.42;100607.16;10130468;29;20056;-77
2022/09/04 07:26:02;;;;;;;2.40;2.20;;;;;;;19.71;45.17;100605.25;10135925;29;20142;-78
2022/09/04 07:31:11;;;;;;;2.70;1.92;;;;;;;20.30;44.99;100604.69;10124721;29;20063;-77
2022/09/04 07:36:19;;;;;;;2.45;1.80;;;;;;;20.51;44.06;100604.00;10117933;29;20107;-77
2022/09/04 07:41:31;;;;;;;2.65;1.52;;;;;;;20.95;43.04;100616.88;10117055;29;20041;-77
2022/09/04 07:46:46;;;;;;;3.63;2.03;;;;;;;21.13;42.72;100617.41;10133551;29;20578;-78
2022/09/04 07:51:58;;;;;;;4.50;1.60;;;;;;;21.53;42.90;100615.22;10125349;29;20072;-79
2022/09/04 07:57:24;;;;;;;3.72;2.08;;;;;;;21.68;41.90;100621.50;10137379;29;20162;-77
2022/09/04 08:02:45;;;;;;;2.63;1.67;;;;;;;21.91;41.67;100627.88;10138925;29;20083;-79
2022/09/04 08:08:28;;;;;;;3.88;1.98;;;;;;;22.29;41.24;100628.50;10146343;29;20051;-77
2022/09/04 08:13:46;;;;;;;3.33;1.83;;;;;;;22.65;40.41;100628.44;10147187;29;20099;-78
2022/09/04 08:19:17;;;;;;;2.78;1.70;;;;;;;22.88;40.49;100630.94;10143654;29;20072;-77
2022/09/04 08:24:41;;;;;;;4.80;1.92;;;;;;;22.96;40.38;100646.38;10114151;29;20196;-77
2022/09/04 08:30:03;;;;;;;1.95;1.45;;;;;;;23.41;39.67;100649.63;10165041;29;20142;-78
2022/09/04 08:35:21;;;;;;;2.88;2.13;;;;;;;23.25;40.15;100645.31;10175864;29;20130;-78
2022/09/04 08:40:51;;;;;;;3.97;1.60;;;;;;;23.86;39.78;100652.81;10160677;29;20083;-79
2022/09/04 08:46:35;;;;;;;3.00;1.80;;;;;;;24.15;39.28;100654.38;10160154;29;20063;-79
2022/09/04 08:52:05;;;;;;;3.30;2.13;;;;;;;24.58;38.86;100654.06;10171514;29;20047;-80
2022/09/04 08:57:41;;;;;;;2.45;1.90;;;;;;;24.66;38.64;100656.59;10160114;29;20056;-78
2022/09/04 09:03:17;;;;;;;2.85;1.92;;;;;;;24.87;38.53;100658.25;10146317;29;20515;-79
2022/09/04 09:08:55;;;;;;;2.95;1.60;;;;;;;25.07;38.16;100649.22;10152526;29;20051;-79
2022/09/04 09:14:16;;;;;;;1.83;1.50;;;;;;;25.67;37.42;100654.56;10138351;29;20056;-76
2022/09/04 09:19:27;;;;;;;3.28;1.30;;;;;;;25.76;37.11;100658.78;10140769;29;20057;-81
2022/09/04 09:25:14;;;;;;;2.33;1.52;;;;;;;26.13;37.18;100657.06;10142803;29;20139;-77
2022/09/04 09:30:19;;;;;;;3.25;1.30;;;;;;;26.05;37.05;100651.84;10084995;29;20059;-78
2022/09/04 09:36:03;;;;;;;3.03;1.70;;;;;;;26.21;36.73;100651.31;10182294;29;20059;-78
2022/09/04 09:41:33;;;;;;;4.07;1.60;;;;;;;26.20;37.04;100646.88;10174861;29;20067;-77
2022/09/04 09:47:10;;;;;;;1.90;1.63;;;;;;;26.88;36.26;100640.69;10136194;29;20056;-79
2022/09/04 09:52:43;;;;;;;8.35;4.82;;;;;;;27.07;36.58;100643.47;10131857;29;20059;-78
2022/09/04 09:58:17;;;;;;;3.50;2.22;;;;;;;27.49;35.70;100646.47;10149285;29;20056;-77
2022/09/04 10:03:48;;;;;;;1.38;1.27;;;;;;;27.77;35.51;100638.44;10144962;29;20063;-78
2022/09/04 10:09:25;;;;;;;3.83;2.25;;;;;;;27.96;34.50;100644.81;10145049;29;21173;-79
2022/09/04 10:15:08;;;;;;;3.67;1.40;;;;;;;28.31;34.32;100648.78;10170383;29;20060;-79
2022/09/04 10:20:53;;;;;;;1.30;1.20;;;;;;;28.21;34.90;100652.09;10190837;29;20115;-77
2022/09/04 10:26:19;;;;;;;1.52;1.15;;;;;;;28.80;33.65;100641.19;10171590;29;20603;-77
2022/09/04 10:31:48;;;;;;;1.83;1.10;;;;;;;28.66;34.38;100641.44;10156388;29;20062;-78
2022/09/04 10:37:04;;;;;;;2.28;1.25;;;;;;;28.81;33.39;100637.34;10187820;29;20062;-78
2022/09/04 10:42:21;;;;;;;1.50;1.08;;;;;;;28.34;34.81;100637.25;10192809;29;20063;-78
2022/09/04 10:47:47;;;;;;;1.70;0.98;;;;;;;28.52;34.58;100647.41;10147899;29;20048;-79
2022/09/04 10:53:14;;;;;;;0.90;0.80;;;;;;;29.61;32.74;100635.88;10099559;29;20056;-78
2022/09/04 10:58:47;;;;;;;1.63;1.10;;;;;;;30.27;31.57;100642.72;10173871;29;20055;-78
2022/09/04 11:04:12;;;;;;;1.77;1.20;;;;;;;31.25;30.67;100628.56;10143158;29;20071;-79
2022/09/04 11:10:03;;;;;;;1.00;1.00;;;;;;;29.83;31.95;100636.88;10137719;29;20372;-79
2022/09/04 11:15:33;;;;;;;3.65;0.90;;;;;;;31.76;29.94;100629.19;10133364;29;20055;-79
2022/09/04 11:21:19;;;;;;;1.02;0.77;;;;;;;32.74;29.00;100619.91;10163020;29;20537;-79
2022/09/04 11:27:00;;;;;;;0.98;0.88;;;;;;;31.63;30.86;100619.31;10155814;29;21337;-79
2022/09/04 11:32:30;;;;;;;1.58;0.80;;;;;;;31.46;30.13;100624.09;10145240;29;20047;-78
2022/09/04 11:37:58;;;;;;;2.53;1.00;;;;;;;31.00;31.17;100618.75;10173746;29;20075;-77
2022/09/04 11:43:25;;;;;;;3.97;1.10;;;;;;;30.94;30.19;100611.44;10172248;29;20134;-78
2022/09/04 11:49:08;;;;;;;0.60;0.60;;;;;;;30.43;31.12;100611.44;10173286;29;20115;-78
2022/09/04 11:54:30;;;;;;;0.80;0.80;;;;;;;31.70;29.49;100606.09;10150847;29;20053;-79
2022/09/04 11:59:44;;;;;;;0.98;0.80;;;;;;;30.24;31.37;100604.44;10145769;29;20085;-77
2022/09/04 12:05:03;;;;;;;1.30;1.15;;;;;;;29.60;32.66;100615.69;10171083;29;20126;-77
2022/09/04 12:10:25;;;;;;;2.20;0.93;;;;;;;31.16;30.78;100611.50;10151753;29;20458;-77
2022/09/04 12:16:09;;;;;;;0.80;0.80;;;;;;;30.13;31.63;100611.75;10139741;29;20055;-77
2022/09/04 12:21:52;;;;;;;0.70;0.70;;;;;;;29.46;33.75;100609.53;10089303;29;20127;-78
2022/09/04 12:27:25;;;;;;;0.75;0.75;;;;;;;29.99;32.90;100613.09;10143374;29;20079;-77
2022/09/04 12:32:57;;;;;;;2.47;1.08;;;;;;;31.99;29.85;100603.91;10140181;29;20115;-77
2022/09/04 12:38:15;;;;;;;;;;;;;;;31.71;30.16;100604.19;10143161;29;21835;-78
2022/09/04 12:43:41;;;;;;;4.00;1.13;;;;;;;33.74;27.85;100603.25;10141486;29;20006;-78
2022/09/04 12:48:56;;;;;;;0.90;0.90;;;;;;;34.76;26.70;100597.78;10145166;29;20102;-77
2022/09/04 12:54:22;;;;;;;1.02;0.70;;;;;;;34.03;27.50;100611.09;10162409;29;20474;-79
2022/09/04 12:59:44;;;;;;;0.90;0.90;;;;;;;33.49;28.29;100615.94;10142929;29;20060;-80
2022/09/04 13:04:58;;;;;;;0.80;0.80;;;;;;;32.15;29.30;100627.16;10159925;29;20059;-79
2022/09/04 13:10:16;;;;;;;0.70;0.70;;;;;;;30.68;32.20;100632.38;10185561;29;20059;-80
2022/09/04 13:15:29;;;;;;;0.95;0.93;;;;;;;29.86;32.63;100618.94;10175575;29;20166;-79
2022/09/04 13:20:41;;;;;;;0.88;0.88;;;;;;;32.24;29.51;100630.31;10188639;29;20059;-80
2022/09/04 13:25:56;;;;;;;0.60;0.60;;;;;;;31.91;29.46;100629.38;10184521;29;20059;-79
2022/09/04 13:31:27;;;;;;;0.90;0.70;;;;;;;32.82;29.49;100619.41;10155434;29;20116;-79
2022/09/04 13:36:34;;;;;;;;;;;;;;;34.16;27.89;100616.16;10172583;29;21276;-79
2022/09/04 13:41:52;;;;;;;0.75;0.75;;;;;;;34.04;27.30;100621.13;10184048;29;19931;-84
2022/09/04 13:47:06;;;;;;;1.15;1.05;;;;;;;33.04;28.93;100619.28;10174773;29;20063;-82
2022/09/04 13:52:16;;;;;;;0.82;0.82;;;;;;;31.65;30.12;100624.59;10170775;29;20040;-80
2022/09/04 13:57:25;;;;;;;0.80;0.80;;;;;;;30.53;32.03;100624.63;10152491;29;20048;-79
2022/09/04 14:02:30;;;;;;;0.95;0.95;;;;;;;30.55;32.69;100636.28;10176286;29;20043;-81
2022/09/04 14:07:36;;;;;;;1.10;1.00;;;;;;;31.64;30.82;100632.09;10166623;29;20048;-79
2022/09/04 14:13:05;;;;;;;0.82;0.82;;;;;;;30.04;32.33;100638.13;10174779;29;20052;-81
2022/09/04 14:18:35;;;;;;;1.58;0.80;;;;;;;29.87;32.97;100631.69;10163577;29;20044;-79
2022/09/04 14:23:54;;;;;;;1.10;1.10;;;;;;;30.66;32.29;100631.78;10184693;29;20084;-81
2022/09/04 14:29:07;;;;;;;1.05;0.80;;;;;;;31.08;31.89;100626.63;10191717;29;20052;-81
2022/09/04 14:34:21;;;;;;;1.07;0.97;;;;;;;30.52;32.37;100634.03;10178909;29;20044;-82
2022/09/04 14:39:30;;;;;;;1.98;0.88;;;;;;;31.09;31.55;100631.06;10168694;29;20317;-80
2022/09/04 14:44:46;;;;;;;0.85;0.85;;;;;;;30.34;31.80;100631.50;10187650;29;20051;-81
2022/09/04 14:49:54;;;;;;;0.88;0.88;;;;;;;30.11;32.66;100638.81;10167224;29;20059;-81
2022/09/04 14:54:57;;;;;;;1.17;1.00;;;;;;;30.73;31.55;100631.63;10187947;29;20052;-82
2022/09/04 15:00:10;;;;;;;3.00;0.80;;;;;;;31.56;30.75;100636.16;10183104;29;20084;-80
2022/09/04 15:05:22;;;;;;;0.93;0.93;;;;;;;32.34;29.52;100633.19;10180930;29;20076;-82
2022/09/04 15:10:30;;;;;;;0.82;0.70;;;;;;;32.25;29.47;100631.16;10190095;29;20051;-80
2022/09/04 15:15:38;;;;;;;0.70;0.70;;;;;;;31.16;31.04;100630.03;10198340;29;20042;-82
2022/09/04 15:20:51;;;;;;;0.85;0.85;;;;;;;31.08;31.72;100634.09;10165488;29;20075;-79
2022/09/04 15:26:06;;;;;;;2.50;1.75;;;;;;;31.61;30.92;100635.41;10206625;29;20051;-82
2022/09/04 15:31:12;;;;;;;0.90;0.85;;;;;;;32.02;30.02;100635.91;10177425;29;20051;-79
2022/09/04 15:36:23;;;;;;;0.77;0.77;;;;;;;32.79;29.42;100636.66;10185894;29;20047;-80
2022/09/04 15:41:36;;;;;;;1.70;1.60;;;;;;;32.73;29.05;100635.78;10184699;29;20268;-79
2022/09/04 15:46:46;;;;;;;1.85;0.90;;;;;;;32.19;29.17;100631.09;10192534;29;20044;-81
2022/09/04 15:51:54;;;;;;;2.00;1.10;;;;;;;32.03;29.45;100634.78;10164125;29;20059;-82
2022/09/04 15:57:07;;;;;;;1.77;0.80;;;;;;;31.88;29.77;100627.13;10183563;29;20048;-82
2022/09/04 16:02:23;;;;;;;1.77;0.80;;;;;;;31.09;30.72;100630.22;10185874;29;20056;-81
2022/09/04 16:07:39;;;;;;;0.90;0.90;;;;;;;30.72;30.79;100633.56;10164086;29;20067;-79
2022/09/04 16:12:50;;;;;;;1.63;0.80;;;;;;;30.00;31.40;100631.41;10153461;29;20103;-79
2022/09/04 16:17:55;;;;;;;1.00;0.80;;;;;;;30.06;31.57;100627.66;10190174;29;20058;-80
2022/09/04 16:23:02;;;;;;;1.05;0.90;;;;;;;29.81;31.59;100627.97;10183205;29;20430;-80
2022/09/04 16:28:11;;;;;;;0.63;0.63;;;;;;;29.69;31.97;100621.66;10177649;29;20064;-80
2022/09/04 16:33:25;;;;;;;3.45;0.80;;;;;;;29.06;32.69;100632.44;10183218;29;20055;-82
2022/09/04 16:38:46;;;;;;;1.17;0.88;;;;;;;28.64;33.80;100632.53;10176310;29;20123;-81
2022/09/04 16:44:10;;;;;;;1.42;1.00;;;;;;;28.19;34.39;100632.16;10180987;29;20068;-81
2022/09/04 16:49:21;;;;;;;1.40;1.10;;;;;;;27.96;35.62;100633.75;10186326;29;20051;-79
2022/09/04 16:54:34;;;;;;;2.72;1.27;;;;;;;27.48;35.54;100639.22;10201839;29;20039;-81
2022/09/04 16:59:42;;;;;;;2.03;1.38;;;;;;;27.35;36.38;100643.81;10184210;29;20528;-80
2022/09/04 17:04:52;;;;;;;3.10;1.45;;;;;;;27.07;37.06;100648.97;10184377;29;20076;-78
2022/09/04 17:10:02;;;;;;;1.45;1.30;;;;;;;26.84;37.27;100652.38;10178466;29;20063;-80
2022/09/04 17:15:16;;;;;;;4.28;1.75;;;;;;;26.73;37.89;100652.00;10160006;29;20067;-81
2022/09/04 17:20:25;;;;;;;2.03;1.80;;;;;;;26.55;38.30;100654.72;10166081;29;20083;-80
2022/09/04 17:25:56;;;;;;;2.13;1.75;;;;;;;26.36;38.51;100652.97;10179032;29;20373;-80
2022/09/04 17:31:27;;;;;;;2.58;1.50;;;;;;;26.05;38.46;100657.34;10157048;29;20175;-78
2022/09/04 17:36:36;;;;;;;1.63;1.52;;;;;;;25.81;38.90;100657.06;10143504;29;20497;-78
2022/09/04 17:42:07;;;;;;;1.73;1.63;;;;;;;25.57;40.07;100664.09;10160238;29;20806;-77
2022/09/04 17:47:28;;;;;;;4.07;1.70;;;;;;;25.29;40.23;100669.88;10148691;29;20056;-78
2022/09/04 17:52:52;;;;;;;2.13;1.40;;;;;;;25.12;40.00;100669.50;10158939;29;20051;-79
2022/09/04 17:58:03;;;;;;;1.80;1.33;;;;;;;24.91;40.37;100676.03;10142688;29;20151;-77
2022/09/04 18:03:21;;;;;;;2.20;1.60;;;;;;;24.73;41.20;100676.66;10147115;29;20052;-79
2022/09/04 18:08:32;;;;;;;2.08;1.70;;;;;;;24.54;41.26;100680.25;10179081;29;20052;-78
2022/09/04 18:13:43;;;;;;;2.57;1.73;;;;;;;24.39;41.21;100685.91;10138936;29;20060;-78
2022/09/04 18:18:50;;;;;;;3.83;1.50;;;;;;;24.25;41.63;100686.94;10148234;29;20060;-78
2022/09/04 18:24:00;;;;;;;2.30;1.70;;;;;;;24.15;41.72;100701.03;10145429;29;20047;-78
2022/09/04 18:29:28;;;;;;;2.22;1.98;;;;;;;24.03;42.15;100695.31;10152208;29;20055;-77
2022/09/04 18:34:57;;;;;;;1.75;1.65;;;;;;;23.91;42.28;100702.41;10141933;29;21214;-78
2022/09/04 18:40:24;;;;;;;2.08;1.88;;;;;;;23.79;42.76;100707.66;10175153;29;20051;-78
2022/09/04 18:45:52;;;;;;;2.25;2.05;;;;;;;23.64;42.65;100705.03;10174715;29;20048;-79
2022/09/04 18:51:28;;;;;;;3.78;1.95;;;;;;;23.52;42.70;100714.00;10165288;29;20143;-78
2022/09/04 18:56:41;;;;;;;3.55;1.92;;;;;;;23.48;42.90;100715.44;10173868;29;20043;-79
2022/09/04 19:01:56;;;;;;;1.70;1.60;;;;;;;23.38;43.26;100715.81;10204472;29;20123;-78
2022/09/04 19:07:06;;;;;;;3.75;2.00;;;;;;;23.25;43.47;100719.31;10153001;29;20052;-78
2022/09/04 19:12:14;;;;;;;3.78;2.05;;;;;;;23.17;43.50;100725.78;10164132;29;20059;-79
2022/09/04 19:17:24;;;;;;;3.08;1.80;;;;;;;23.10;43.43;100715.81;10185617;29;20062;-80
2022/09/04 19:22:34;;;;;;;1.77;1.67;;;;;;;23.00;43.89;100727.09;10191969;29;20539;-81
2022/09/04 19:27:41;;;;;;;7.38;1.80;;;;;;;22.88;44.04;100736.91;10147799;29;20071;-82
2022/09/04 19:33:01;;;;;;;2.90;1.80;;;;;;;22.83;44.39;100734.75;10163469;29;20050;-80
2022/09/04 19:38:10;;;;;;;4.35;2.10;;;;;;;22.76;44.38;100737.44;10166614;29;20044;-80
2022/09/04 19:43:48;;;;;;;5.20;2.00;;;;;;;22.67;44.68;100744.06;10159276;29;20056;-80
2022/09/04 19:49:19;;;;;;;3.65;1.90;;;;;;;22.57;44.44;100743.53;10156574;29;20164;-80
2022/09/04 19:54:47;;;;;;;2.38;2.13;;;;;;;22.50;44.83;100759.06;10194466;29;20045;-80
2022/09/04 20:00:19;;;;;;;3.72;1.92;;;;;;;22.43;44.93;100753.50;10194003;29;20047;-80
2022/09/04 20:05:51;;;;;;;2.47;2.20;;;;;;;22.43;45.13;100766.31;10173692;29;20055;-81
2022/09/04 20:11:02;;;;;;;3.08;2.40;;;;;;;22.36;45.18;100760.78;10175759;29;20076;-80
2022/09/04 20:16:16;;;;;;;4.13;2.92;;;;;;;22.36;45.05;100766.25;10176350;29;20055;-81
2022/09/04 20:21:26;;;;;;;4.43;2.65;;;;;;;22.25;45.01;100764.84;10163309;29;20048;-81
2022/09/04 20:26:33;;;;;;;3.63;2.30;;;;;;;22.19;45.69;100764.75;10176329;29;20039;-82
2022/09/04 20:31:48;;;;;;;2.58;2.38;;;;;;;22.08;45.35;100764.22;10166325;29;20055;-81
2022/09/04 20:36:59;;;;;;;2.75;2.38;;;;;;;22.02;45.72;100755.94;10160166;29;20051;-80
2022/09/04 20:42:06;;;;;;;3.10;2.78;;;;;;;22.01;45.87;100770.66;10170233;29;20047;-81
2022/09/04 20:47:18;;;;;;;2.75;2.35;;;;;;;21.86;47.02;100767.94;10161814;29;20052;-80
2022/09/04 20:52:54;;;;;;;3.28;2.03;;;;;;;21.62;48.49;100769.88;10154436;29;21252;-78
2022/09/04 20:59:01;;;;;;;2.88;2.38;;;;;;;21.34;49.23;100777.03;10162310;29;20065;-79
2022/09/04 21:04:32;;;;;;;2.63;2.42;;;;;;;21.12;49.63;100790.53;10171831;29;20056;-79
2022/09/04 21:09:57;;;;;;;2.83;2.63;;;;;;;21.08;50.09;100781.00;10175379;29;20157;-79
2022/09/04 21:15:10;;;;;;;3.47;2.80;;;;;;;21.11;49.72;100783.34;10148708;29;20060;-78
2022/09/04 21:20:31;;;;;;;3.38;3.03;;;;;;;21.20;49.07;100786.84;10161100;29;20683;-78
2022/09/04 21:25:49;;;;;;;3.78;3.17;;;;;;;21.14;48.90;100782.97;10151713;29;20052;-78
2022/09/04 21:31:03;;;;;;;4.28;2.97;;;;;;;21.14;48.63;100782.13;10129205;29;20059;-78
2022/09/04 21:36:13;;;;;;;4.50;3.70;;;;;;;21.13;48.85;100788.63;10148184;29;20063;-78
2022/09/04 21:41:54;;;;;;;3.08;2.78;;;;;;;21.09;48.48;100784.56;10150237;29;20127;-79
2022/09/04 21:47:05;;;;;;;3.38;3.15;;;;;;;21.04;48.79;100790.59;10130880;29;20068;-78
2022/09/04 21:52:23;;;;;;;3.90;3.38;;;;;;;20.96;48.59;100791.47;10145670;29;20471;-77
2022/09/04 21:57:47;;;;;;;5.15;3.88;;;;;;;20.91;48.70;100793.91;10139618;29;20048;-79
2022/09/04 22:03:28;;;;;;;5.22;4.10;;;;;;;20.89;49.31;100806.88;10185671;29;20087;-78
2022/09/04 22:08:44;;;;;;;3.47;3.15;;;;;;;20.96;49.11;100807.00;10196163;29;20060;-78
2022/09/04 22:14:18;;;;;;;3.45;3.22;;;;;;;20.93;49.69;100807.38;10182241;29;20063;-79
2022/09/04 22:19:47;;;;;;;4.78;3.30;;;;;;;20.71;50.78;100807.19;10179414;29;20052;-79
2022/09/04 22:25:24;;;;;;;4.63;3.15;;;;;;;20.49;51.78;100797.94;10166969;29;20051;-79
2022/09/04 22:30:33;;;;;;;3.35;2.92;;;;;;;20.17;52.91;100811.72;10186712;29;20060;-79
2022/09/04 22:36:17;;;;;;;3.22;3.00;;;;;;;20.12;53.08;100810.34;10169158;29;20060;-79
2022/09/04 22:41:51;;;;;;;4.22;3.33;;;;;;;20.11;52.71;100802.38;10160006;29;20084;-78
2022/09/04 22:47:27;;;;;;;4.72;3.20;;;;;;;20.02;53.02;100807.00;10165652;29;21014;-78
2022/09/04 22:52:55;;;;;;;3.95;3.33;;;;;;;20.01;52.86;100815.34;10175703;29;20051;-78
2022/09/04 22:58:16;;;;;;;3.70;3.25;;;;;;;20.13;52.96;100813.97;10192069;29;20047;-78
2022/09/04 23:03:40;;;;;;;3.95;3.58;;;;;;;20.14;52.46;100810.19;10181396;29;20040;-79
2022/09/04 23:08:59;;;;;;;4.60;3.70;;;;;;;20.15;52.07;100811.03;10160077;29;20127;-79
2022/09/04 23:14:34;;;;;;;4.82;4.32;;;;;;;20.21;51.29;100811.16;10180146;29;20052;-78
2022/09/04 23:20:03;;;;;;;4.15;3.85;;;;;;;20.11;51.24;100807.81;10205145;29;20051;-80
2022/09/04 23:25:45;;;;;;;4.00;3.70;;;;;;;20.02;51.27;100807.00;10188049;29;20083;-79
2022/09/04 23:31:26;;;;;;;4.78;4.35;;;;;;;20.06;51.38;100808.34;10168546;29;20056;-79
2022/09/04 23:37:05;;;;;;;6.70;4.20;;;;;;;20.02;51.20;100808.84;10188852;29;20573;-79
2022/09/04 23:42:28;;;;;;;4.18;3.78;;;;;;;20.04;51.42;100807.66;10164542;29;20052;-80
2022/09/04 23:47:43;;;;;;;6.28;4.03;;;;;;;20.05;51.36;100809.38;10188984;29;20074;-79
2022/09/04 23:53:10;;;;;;;4.35;3.95;;;;;;;20.04;51.64;100802.22;10181868;29;20136;-78
